Record high temperature 35.7°C Record low temperature -5.3°C Record high gust 54 mph Record high average 35.8 mph Record daily rain 5.08 in. Record low windchill -10.8°C Record high barometer 1045.9 hPa Record low barometer 970.9 hPa
Daily high pressure 1013.3 mb Daily low pressure 1011.9 mb Daily low windchill 11.3°C Daily high heat index 11.9°C Daily high gust speed 20.0 mph SW Daily high average speed 11.6 mph SE
Forecast: increasing clouds with little temp. change.
Weather Data
LAST READING AT TIME: 07:45 DATE: 21 November 2017, time of next update: 08:00
Current WeatherDawn/Dry Current Temperature 11.3°C (52.3°F), Apparent temp 11.0°C, Apparent temp solar 12.7°C
Maximum Temperature (since midnight)11.9°C at: 00:04 Minimum Temperature (since midnight)11.3°C at: 07:25
Average windspeed (ten minute)4.3 mph Wind Direction (ten minute)SW (220°)
Windchill Temperature 11.3°C Maximum Gust (last hour)12 mph at: 06:48
Maximum Gust (since midnight)20 mph at: 05:05 Maximum 1 minute average (since midnight)11.6 mph at: 05:06
Rainfall (last hour)0.00 in. (0.0 mm) Rainfall (since midnight)0.00 in. (0.0 mm) ---
Rainfall This month 1.64 in. (41.7 mm) Rainfall To date this year 17.83 in. (453.0 mm)
Maximum rain per minute (last hour)0.00 in/min Maximum rain per hour (last 6 hours)0.00 in/hour
Yesterdays rainfall 0.08 in DewPoint 9.2°C (Wet Bulb :10.2°C )
Humidity 87 %, Humidex 12.2°C Barometer corrected to msl1012.4 mb
Pressure change +0.3 mb (last hour) Trend (last hour)STEADY
Pressure change (last 12 hours)-1.0 mb Pressure change (last 6 hours)-0.6 mb
Current Indoor Temp. 14.0°C
Current Indoor Hum. 64%
Current solar 11 W/Mē Current UV0.0
Maximum solar (since midnight) 11 W/Mē Maximum UV (since midnight)0.0
Current 00:00 hours of sunshine today, current sky: Dawn/Dry
Sunshine hours for the year: 849:42 hrs Sunshine hours for the month: 17:54 hrs
Current evapotranspiration 0.02 inches per day. Yesterday's reading 0.01

This page is updated from recent data collected by a DAVIS VANTAGE PRO weather station Use the Reload or Refresh facility on your browser to retrieve the latest data.


Click here for the last 24 hour graph
Click here for the last 48 hour graph
Click here for the last 72 hour graph
Click here for the month to date graph


Weather report/Warning/Metars

London / Gatwick Airport, United Kingdom (EGKK) 51-09N 000-11W 0M
Nov 21, 2017 - 02:20 AM EST / 2017.11.21 0720 UTC
Wind: from the WSW (250 degrees) at 5 MPH (4 KT) (direction variable):0
Visibility: greater than 7 mile(s):0
Sky conditions: mostly clear
Temperature: 53 F (12 C)
Dew Point: 50 F (10 C)
Relative Humidity: 87%
Pressure (altimeter): 29.88 in. Hg (1012 hPa)
ob: EGKK 210720Z 25004KT 180V290 9999 FEW015 12/10 Q1012
cycle: 7
London City Airport, United Kingdom (EGLC) 51-30N 000-30W
Nov 21, 2017 - 02:20 AM EST / 2017.11.21 0720 UTC
Wind: from the WSW (240 degrees) at 17 MPH (15 KT):0
Visibility: greater than 7 mile(s):0
Sky conditions: mostly cloudy
Temperature: 55 F (13 C)
Dew Point: 50 F (10 C)
Relative Humidity: 81%
Pressure (altimeter): 29.85 in. Hg (1011 hPa)
ob: EGLC 210720Z AUTO 24015KT 9999 BKN015 BKN023 13/10 Q1011
cycle: 7
London / Heathrow Airport, United Kingdom (EGLL) 51-29N 000-27W 0M
Nov 21, 2017 - 02:20 AM EST / 2017.11.21 0720 UTC
Wind: from the WSW (240 degrees) at 14 MPH (12 KT):0
Visibility: greater than 7 mile(s):0
Sky conditions: overcast
Temperature: 53 F (12 C)
Dew Point: 50 F (10 C)
Relative Humidity: 87%
Pressure (altimeter): 29.88 in. Hg (1012 hPa)
ob: EGLL 210720Z AUTO 24012KT 9999 OVC011 12/10 Q1012 BECMG SCT011 BKN018
cycle: 7
Southend-On-Sea , United Kingdom (EGMC) 51-34N 000-42E
Nov 21, 2017 - 02:20 AM EST / 2017.11.21 0720 UTC
Wind: from the SW (230 degrees) at 17 MPH (15 KT):0
Visibility: greater than 7 mile(s):0
Sky conditions: mostly clear
Temperature: 53 F (12 C)
Dew Point: 48 F (9 C)
Relative Humidity: 81%
Pressure (altimeter): 29.85 in. Hg (1011 hPa)
ob: EGMC 210720Z 23015KT 9999 FEW047 12/09 Q1011
cycle: 7
Lydd Airport , United Kingdom (EGMD) 50-57N 000-56E
Nov 21, 2017 - 02:20 AM EST / 2017.11.21 0720 UTC
Wind: from the WSW (250 degrees) at 15 MPH (13 KT):0
Visibility: greater than 7 mile(s):0
Sky conditions: partly cloudy
Temperature: 53 F (12 C)
Dew Point: 50 F (10 C)
Relative Humidity: 87%
Pressure (altimeter): 29.91 in. Hg (1013 hPa)
ob: EGMD 210720Z AUTO 25013KT 9999 FEW016/// SCT044/// 12/10 Q1013
cycle: 7
Biggin Hill , United Kingdom (EGKB) 51-19N 000-02E
Nov 21, 2017 - 02:20 AM EST / 2017.11.21 0720 UTC
Wind: from the SW (230 degrees) at 12 MPH (10 KT) (direction variable):0
Visibility: greater than 7 mile(s):0
Sky conditions: partly cloudy
Temperature: 51 F (11 C)
Dew Point: 50 F (10 C)
Relative Humidity: 93%
Pressure (altimeter): 29.88 in. Hg (1012 hPa)
ob: EGKB 210720Z 23010KT 200V260 9999 SCT009 11/10 Q1012 
cycle: 7
Amundsen-Scott South Pole Station, Antarctica (NZSP) 90-00S 00-00E 2835M
Nov 21, 2017 - 12:50 AM EST / 2017.11.21 0550 UTC
Wind: from the NE (040 degrees) at 5 MPH (4 KT):0
Visibility: greater than 7 mile(s):0
Sky conditions: partly cloudy
Temperature: -36 F (-38 C)
Windchill: -52 F (-47 C):2
Pressure (altimeter): 28.41 in. Hg (962 hPa)
ob: NZSP 210550Z 04004KT 9999 SCT006 M38/ A2841 RMK CLN AIR 04004KT ALL WNDS GRID SDG/HDG
cycle: 6